Airfield :







YOU CAN JOIN US ON...

 
LOGIN :

Register | Disclaimer

   EN    FR    IT 

 









Legend :    VFR   Marginal VFR   IFR   Intensive IFR   Very Intensive IFR
Visi :
Ceiling :
>= 8 km
>= 3000ft
5 to 8 km
1000 to 3000 ft
1500m to 5 km
500 to 1000 ft
800 to 1500m
200 to 500 ft
< 800m
< 200 ft
Symbols :   Thunderstorms  Fog  Heavy snow  Heavy precipitations  Wind > 20 kt







- Airport Elevation : 792 ft
- IATA code : YSC


CYSC - Sherbrooke

CURRENT METAR :
  • 222000Z AUTO 21007KT 180V250 9SM FEW048 SCT100 25/18 A2992 RMK SLP132 DENSITY ALT 2100FT

EXPIRED METARs :
  • 221900Z AUTO 22007KT 9SM CLR 26/18 A2993 RMK SLP138 DENSITY ALT 2100FT
  • 221800Z AUTO 22011G16KT 190V250 9SM CLR 26/17 A2995 RMK PRESFR SLP146 DENSITY ALT 2100FT

TAF TAF CYSC
Valid from the 22 at 18:00 until the 23 at 03:00 UTC


221742Z 2218/2303 22008KT P6SM FEW040
FM222100 24012G22KT P6SM SCT040 BKN120
FM230000 25010KT P6SM BKN060 RMK FCST BASED ON AUTO OBS. NXT FCST BY 230000Z
No reported NOTAMs for that airfield.



MET'MAP, your aeronautical weather chart ! - Copyright ORBIFLY December 2007 - Disclaimer

ORBIFLY MET'MAP TEAM :

Programming & Development : Alexandra Zaïnal
Concept & Development : Baudouin d'Aumeries
Co-Development & Prog : Marc-Olivier Méhu
Technical & hardware support : Manuel Goepfert

Contact : metmap@orbifly.com




SOURCES & CREDITS :

   NOAA